createdAt,value
2022-09-20T00:01:23.083Z,79.30
2022-09-20T00:03:53.406Z,79.90
2022-09-20T00:06:23.179Z,79.90
2022-09-20T00:08:50.683Z,80.30
2022-09-20T00:11:23.218Z,80.30
2022-09-20T00:13:52.536Z,80.10
2022-09-20T00:16:28.239Z,79.90
2022-09-20T00:18:57.285Z,79.90
2022-09-20T00:21:28.260Z,79.50
2022-09-20T00:23:57.593Z,79.40
2022-09-20T00:26:26.418Z,79.20
2022-09-20T00:28:53.712Z,79.20
2022-09-20T00:31:20.956Z,79.00
2022-09-20T00:34:06.581Z,78.80
2022-09-20T00:36:33.763Z,78.60
2022-09-20T00:39:03.680Z,77.80
2022-09-20T00:41:32.180Z,77.60
2022-09-20T00:44:00.661Z,77.00
2022-09-20T00:46:44.003Z,77.10
2022-09-20T00:49:22.324Z,77.00
2022-09-20T00:51:57.073Z,76.80
2022-09-20T00:54:25.536Z,76.60
2022-09-20T00:56:52.856Z,76.30
2022-09-20T00:59:28.323Z,75.90
2022-09-20T01:02:06.651Z,75.90
2022-09-20T01:04:35.531Z,75.90
2022-09-20T01:07:05.124Z,75.90
2022-09-20T01:09:32.100Z,75.90
2022-09-20T01:12:03.741Z,75.80
2022-09-20T01:14:30.964Z,75.60
2022-09-20T01:17:03.927Z,75.50
2022-09-20T01:20:04.433Z,75.60
2022-09-20T01:22:58.661Z,75.60
2022-09-20T01:25:46.933Z,75.90
2022-09-20T01:28:14.617Z,76.80
2022-09-20T01:30:52.795Z,76.30
2022-09-20T01:33:44.488Z,76.60
2022-09-20T01:36:18.001Z,76.90
2022-09-20T01:39:05.943Z,77.20
2022-09-20T01:42:05.636Z,77.40
2022-09-20T01:44:57.571Z,77.80
2022-09-20T01:47:33.336Z,78.10
2022-09-20T01:50:12.951Z,78.20
2022-09-20T01:53:04.670Z,78.60
2022-09-20T01:55:40.661Z,79.30
2022-09-20T01:58:22.662Z,79.40
2022-09-20T02:01:03.254Z,79.70
2022-09-20T02:03:42.039Z,80.00
2022-09-20T02:06:18.373Z,80.30
2022-09-20T02:09:03.731Z,80.50
2022-09-20T02:11:59.287Z,80.70
2022-09-20T02:14:52.059Z,80.80
2022-09-20T02:17:34.368Z,80.90
2022-09-20T02:20:37.180Z,80.90
2022-09-20T02:23:30.062Z,81.00
2022-09-20T02:26:15.048Z,81.00
2022-09-20T02:28:55.826Z,81.00
2022-09-20T02:31:44.481Z,81.00
2022-09-20T02:34:17.035Z,81.00
2022-09-20T02:37:13.066Z,81.00
2022-09-20T02:39:58.067Z,81.20
2022-09-20T02:42:29.717Z,81.10
2022-09-20T02:44:56.880Z,81.10
2022-09-20T02:47:42.403Z,81.30
2022-09-20T02:50:32.671Z,81.60
2022-09-20T02:53:37.261Z,81.80
2022-09-20T02:56:18.981Z,81.70
2022-09-20T02:59:10.524Z,81.60
2022-09-20T03:01:49.346Z,81.70
2022-09-20T03:04:37.386Z,81.90
2022-09-20T03:07:09.682Z,82.10
2022-09-20T03:10:01.571Z,82.20
2022-09-20T03:12:49.483Z,82.50
2022-09-20T03:15:16.405Z,82.50
2022-09-20T03:17:54.984Z,82.50
2022-09-20T03:20:48.221Z,82.60
2022-09-20T03:23:45.034Z,82.70
2022-09-20T03:26:30.497Z,83.00
2022-09-20T03:29:20.019Z,83.10
2022-09-20T03:32:14.937Z,83.30
2022-09-20T03:34:53.992Z,83.40
2022-09-20T03:37:30.284Z,83.70
2022-09-20T03:40:18.269Z,83.90
2022-09-20T03:42:48.937Z,84.20
2022-09-20T03:45:58.875Z,84.30
2022-09-20T03:48:31.701Z,84.60
2022-09-20T03:51:11.011Z,84.50
2022-09-20T03:53:46.661Z,84.70
2022-09-20T03:56:22.479Z,85.10
2022-09-20T03:59:07.247Z,85.30
2022-09-20T04:01:41.398Z,85.50
2022-09-20T04:04:23.851Z,85.40
2022-09-20T04:07:17.098Z,85.40
2022-09-20T04:10:14.558Z,85.00
2022-09-20T04:12:53.489Z,85.10
2022-09-20T04:15:30.394Z,85.40
2022-09-20T04:18:01.302Z,85.70
2022-09-20T04:20:38.643Z,85.70
2022-09-20T04:23:24.407Z,86.00
2022-09-20T04:25:51.707Z,86.30
2022-09-20T04:28:25.511Z,86.40
2022-09-20T04:31:01.777Z,86.60
2022-09-20T04:33:37.364Z,86.70
2022-09-20T04:36:29.769Z,86.80
2022-09-20T04:39:08.816Z,86.80
2022-09-20T04:41:59.816Z,86.70
2022-09-20T04:44:58.891Z,87.20
2022-09-20T04:48:06.781Z,87.10
2022-09-20T04:50:55.189Z,87.00
2022-09-20T04:53:27.786Z,86.90
2022-09-20T04:56:45.118Z,86.80
2022-09-20T04:59:43.088Z,86.90
2022-09-20T05:02:31.901Z,87.00
2022-09-20T05:05:14.533Z,87.00
2022-09-20T05:08:02.686Z,87.10
2022-09-20T05:10:42.037Z,87.10
2022-09-20T05:13:14.757Z,87.40
2022-09-20T05:15:44.917Z,87.60
2022-09-20T05:18:42.245Z,87.70
2022-09-20T05:21:24.350Z,88.00
2022-09-20T05:23:51.815Z,88.20
2022-09-20T05:26:34.223Z,88.20
2022-09-20T05:29:30.286Z,88.10
2022-09-20T05:32:22.778Z,88.00
2022-09-20T05:34:56.627Z,87.80
2022-09-20T05:37:42.146Z,87.60
2022-09-20T05:40:33.452Z,87.40
2022-09-20T05:43:13.489Z,87.50
2022-09-20T05:46:14.509Z,87.80
2022-09-20T05:48:53.931Z,87.90
2022-09-20T05:51:51.209Z,88.00
2022-09-20T05:54:51.779Z,88.40
2022-09-20T05:57:56.083Z,88.50
2022-09-20T06:00:27.939Z,88.60
2022-09-20T06:03:19.105Z,88.50
2022-09-20T06:06:10.663Z,88.50
2022-09-20T06:08:40.676Z,88.70
2022-09-20T06:11:32.143Z,88.60
2022-09-20T06:14:15.225Z,88.50
2022-09-20T06:16:56.980Z,88.70
2022-09-20T06:19:40.656Z,88.80
2022-09-20T06:22:17.577Z,87.80
2022-09-20T06:24:56.526Z,87.00
2022-09-20T06:27:53.401Z,86.50
2022-09-20T06:30:39.609Z,86.20
2022-09-20T06:33:06.567Z,85.80
2022-09-20T06:36:21.536Z,85.40
2022-09-20T06:39:18.896Z,84.80
2022-09-20T06:41:46.164Z,84.80
2022-09-20T06:44:13.085Z,84.80
2022-09-20T06:46:41.611Z,84.30
2022-09-20T06:49:09.629Z,83.40
2022-09-20T06:51:39.648Z,83.20
2022-09-20T06:54:12.293Z,82.80
2022-09-20T06:56:39.352Z,82.10
2022-09-20T06:59:08.706Z,82.10
2022-09-20T07:01:36.110Z,82.00
2022-09-20T07:04:04.201Z,81.80
2022-09-20T07:06:31.186Z,81.80
2022-09-20T07:08:58.277Z,82.30
2022-09-20T07:11:25.771Z,82.40
2022-09-20T07:13:55.236Z,81.50
2022-09-20T07:16:22.835Z,80.90
2022-09-20T07:18:52.571Z,80.50
2022-09-20T07:21:21.037Z,80.80
2022-09-20T07:23:48.796Z,80.80
2022-09-20T07:26:20.833Z,81.10
2022-09-20T07:28:48.086Z,80.80
2022-09-20T07:31:15.893Z,80.50
2022-09-20T07:33:42.921Z,80.90
2022-09-20T07:36:12.335Z,80.80
2022-09-20T07:38:40.538Z,80.30
2022-09-20T07:41:07.970Z,79.70
2022-09-20T07:43:35.364Z,79.30
2022-09-20T07:46:03.106Z,78.40
2022-09-20T07:48:32.911Z,77.10
2022-09-20T07:51:08.461Z,76.20
2022-09-20T07:53:36.915Z,76.00
2022-09-20T07:56:05.403Z,75.70
2022-09-20T07:58:34.110Z,76.00
2022-09-20T08:01:09.817Z,75.20
2022-09-20T08:03:37.303Z,74.50
2022-09-20T08:06:10.022Z,74.80
2022-09-20T08:08:39.281Z,74.50
2022-09-20T08:11:08.931Z,73.70
2022-09-20T08:14:17.714Z,74.00
2022-09-20T08:16:47.451Z,73.90
2022-09-20T08:19:17.357Z,73.70
2022-09-20T08:21:44.855Z,72.70
2022-09-20T08:24:12.215Z,73.20
2022-09-20T08:26:39.642Z,72.40
2022-09-20T08:29:07.076Z,72.40
2022-09-20T08:31:37.261Z,71.60
2022-09-20T08:34:06.817Z,71.20
2022-09-20T08:36:36.924Z,70.60
2022-09-20T08:41:56.954Z,70.30
2022-09-20T08:45:00.088Z,70.80
2022-09-20T08:47:35.910Z,70.10
2022-09-20T08:50:10.074Z,69.30
2022-09-20T08:52:47.839Z,69.10
2022-09-20T08:55:18.136Z,68.40
2022-09-20T08:57:49.283Z,67.90
2022-09-20T09:00:19.778Z,67.60
2022-09-20T09:02:47.203Z,67.30
2022-09-20T09:05:33.748Z,67.00
2022-09-20T09:08:05.559Z,66.20
2022-09-20T09:10:45.126Z,66.60
2022-09-20T09:13:48.973Z,66.50
2022-09-20T09:16:24.826Z,65.50
2022-09-20T09:18:55.356Z,65.00
2022-09-20T09:21:28.956Z,65.00
2022-09-20T09:24:02.607Z,65.00
2022-09-20T09:26:36.867Z,64.50
2022-09-20T09:29:24.316Z,62.80
2022-09-20T09:31:52.931Z,62.70
2022-09-20T09:34:35.368Z,62.10
2022-09-20T09:37:02.407Z,62.60
2022-09-20T09:39:34.443Z,62.40
2022-09-20T09:42:20.356Z,63.50
2022-09-20T09:44:50.369Z,63.80
2022-09-20T09:47:28.328Z,63.50
2022-09-20T09:50:02.857Z,62.90
2022-09-20T09:52:34.065Z,62.10
2022-09-20T09:55:05.349Z,62.20
2022-09-20T09:57:55.756Z,60.60
2022-09-20T10:00:24.930Z,61.00
2022-09-20T10:03:10.395Z,59.60
2022-09-20T10:05:46.157Z,59.60
2022-09-20T10:08:31.088Z,59.60
2022-09-20T10:11:10.442Z,59.60
2022-09-20T10:13:57.745Z,60.40
2022-09-20T10:16:55.715Z,59.60
2022-09-20T10:19:35.612Z,60.40
2022-09-20T10:22:18.521Z,60.30
2022-09-20T10:25:13.696Z,59.90
2022-09-20T10:28:14.781Z,59.70
2022-09-20T10:31:01.777Z,59.10
2022-09-20T10:33:34.538Z,60.60
2022-09-20T10:36:28.816Z,59.70
2022-09-20T10:39:09.819Z,59.50
2022-09-20T10:42:11.587Z,58.30
2022-09-20T10:44:47.812Z,57.70
2022-09-20T10:47:20.417Z,58.00
2022-09-20T10:49:57.322Z,58.50
2022-09-20T10:52:38.578Z,56.40
2022-09-20T10:55:18.868Z,57.10
2022-09-20T10:58:01.481Z,56.30
2022-09-20T11:00:36.961Z,56.90
2022-09-20T11:03:25.442Z,56.90
2022-09-20T11:06:29.846Z,56.00
2022-09-20T11:09:02.393Z,56.00
2022-09-20T11:11:35.765Z,56.80
2022-09-20T11:14:14.624Z,56.50
2022-09-20T11:17:00.400Z,56.50
2022-09-20T11:19:35.657Z,55.70
2022-09-20T11:22:14.515Z,54.60
2022-09-20T11:24:57.953Z,53.90
2022-09-20T11:27:36.149Z,54.50
2022-09-20T11:30:08.364Z,54.80
2022-09-20T11:32:42.282Z,54.90
2022-09-20T11:35:12.229Z,54.20
2022-09-20T11:38:04.336Z,53.70
2022-09-20T11:40:40.396Z,53.50
2022-09-20T11:43:11.276Z,52.20
2022-09-20T11:45:40.558Z,52.30
2022-09-20T11:48:21.608Z,51.70
2022-09-20T11:51:05.509Z,51.30
2022-09-20T11:53:57.267Z,50.90
2022-09-20T11:56:27.139Z,50.80
2022-09-20T11:58:59.646Z,50.90
2022-09-20T12:01:32.392Z,50.50
2022-09-20T12:04:33.595Z,50.60
2022-09-20T12:07:19.121Z,50.40
2022-09-20T12:10:04.187Z,50.80
2022-09-20T12:12:44.086Z,51.10
2022-09-20T12:15:28.172Z,51.10
2022-09-20T12:17:57.896Z,51.00
2022-09-20T12:20:39.866Z,51.20
2022-09-20T12:23:40.795Z,51.40
2022-09-20T12:26:23.153Z,50.80
2022-09-20T12:28:58.745Z,50.30
2022-09-20T12:31:26.426Z,50.00
2022-09-20T12:34:13.649Z,50.00
2022-09-20T12:36:46.565Z,49.40
2022-09-20T12:39:16.388Z,50.40
2022-09-20T12:41:49.021Z,50.70
2022-09-20T12:44:36.749Z,50.60
2022-09-20T12:47:08.441Z,50.50
2022-09-20T12:50:05.897Z,50.50
2022-09-20T12:52:53.413Z,49.50
2022-09-20T12:55:32.486Z,49.30
2022-09-20T12:58:14.663Z,48.30
2022-09-20T13:00:42.729Z,48.70
2022-09-20T13:03:23.541Z,48.60
2022-09-20T13:06:17.663Z,48.90
2022-09-20T13:08:57.111Z,47.80
2022-09-20T13:11:28.405Z,48.00
2022-09-20T13:13:57.627Z,48.20
2022-09-20T13:16:33.556Z,48.10
2022-09-20T13:19:11.204Z,47.30
2022-09-20T13:21:42.337Z,47.10
2022-09-20T13:24:16.282Z,46.80
2022-09-20T13:26:46.887Z,44.70
2022-09-20T13:29:35.377Z,45.50
2022-09-20T13:32:26.254Z,45.50
2022-09-20T13:35:08.494Z,45.70
2022-09-20T13:37:45.935Z,45.80
2022-09-20T13:40:20.103Z,45.40
2022-09-20T13:42:49.169Z,45.70
2022-09-20T13:45:17.847Z,46.30
2022-09-20T13:47:50.387Z,46.30
2022-09-20T13:50:27.989Z,46.20
2022-09-20T13:52:58.628Z,45.90
2022-09-20T13:55:36.000Z,45.50
2022-09-20T13:58:25.024Z,45.20
2022-09-20T14:00:55.617Z,45.70
2022-09-20T14:03:23.642Z,46.30
2022-09-20T14:05:53.897Z,46.40
2022-09-20T14:08:38.061Z,46.80
2022-09-20T14:11:17.637Z,47.20
2022-09-20T14:13:48.634Z,46.40
2022-09-20T14:16:17.232Z,44.70
2022-09-20T14:18:47.132Z,45.30
2022-09-20T14:21:18.124Z,46.30
2022-09-20T14:24:02.175Z,45.20
2022-09-20T14:26:30.946Z,46.40
2022-09-20T14:29:36.313Z,45.90
2022-09-20T14:32:10.681Z,46.20
2022-09-20T14:34:39.887Z,43.60
2022-09-20T14:37:13.559Z,45.40
2022-09-20T14:39:49.288Z,46.10
2022-09-20T14:42:33.825Z,46.10
2022-09-20T14:45:02.036Z,45.60
2022-09-20T14:47:52.573Z,44.20
2022-09-20T14:50:29.036Z,45.00
2022-09-20T14:53:26.809Z,44.80
2022-09-20T14:56:04.371Z,44.90
2022-09-20T14:58:31.772Z,45.90
2022-09-20T15:01:25.947Z,46.40
2022-09-20T15:03:53.696Z,46.30
2022-09-20T15:06:20.685Z,47.60
2022-09-20T15:08:47.787Z,45.60
2022-09-20T15:11:16.766Z,46.40
2022-09-20T15:13:44.117Z,47.20
2022-09-20T15:16:13.575Z,47.70
2022-09-20T15:18:44.522Z,47.40
2022-09-20T15:21:12.067Z,47.70
2022-09-20T15:23:40.238Z,48.20
2022-09-20T15:26:10.681Z,48.70
2022-09-20T15:28:37.621Z,47.50
2022-09-20T15:31:04.875Z,47.60
2022-09-20T15:33:32.356Z,47.10
2022-09-20T15:36:02.032Z,47.20
2022-09-20T15:38:29.082Z,47.30
2022-09-20T15:40:56.068Z,46.80
2022-09-20T15:43:26.743Z,47.60
2022-09-20T15:45:56.205Z,49.00
2022-09-20T15:48:25.518Z,49.20
2022-09-20T15:51:02.403Z,49.00
2022-09-20T15:53:48.640Z,49.40
2022-09-20T15:56:21.295Z,50.10
2022-09-20T15:58:50.516Z,50.10
2022-09-20T16:01:18.706Z,50.00
2022-09-20T16:03:46.535Z,50.20
2022-09-20T16:06:13.888Z,50.60
2022-09-20T16:08:42.728Z,51.10
2022-09-20T16:11:20.442Z,51.10
2022-09-20T16:13:59.656Z,51.70
2022-09-20T16:16:28.860Z,51.80
2022-09-20T16:19:14.573Z,51.90
2022-09-20T16:21:44.098Z,52.20
2022-09-20T16:24:13.761Z,52.40
2022-09-20T16:26:40.878Z,53.00
2022-09-20T16:29:08.008Z,53.10
2022-09-20T16:31:42.118Z,53.60
2022-09-20T16:34:21.056Z,53.60
2022-09-20T16:36:53.857Z,53.90
2022-09-20T16:39:26.258Z,54.50
2022-09-20T16:41:54.773Z,55.00
2022-09-20T16:44:21.844Z,55.60
2022-09-20T16:46:48.751Z,56.00
2022-09-20T16:49:17.103Z,56.50
2022-09-20T16:51:46.314Z,56.90
2022-09-20T16:54:17.403Z,57.00
2022-09-20T16:56:46.653Z,57.30
2022-09-20T16:59:15.812Z,57.70
2022-09-20T17:01:43.806Z,58.10
2022-09-20T17:04:14.378Z,58.20
2022-09-20T17:06:43.479Z,58.90
2022-09-20T17:09:11.332Z,58.40
2022-09-20T17:11:41.781Z,58.60
2022-09-20T17:14:09.600Z,59.00
2022-09-20T17:16:39.055Z,59.00
2022-09-20T17:19:11.656Z,59.10
2022-09-20T17:21:42.409Z,59.20
2022-09-20T17:24:09.918Z,59.40
2022-09-20T17:26:40.332Z,59.50
2022-09-20T17:29:10.331Z,59.70
2022-09-20T17:31:39.720Z,59.70
2022-09-20T17:34:09.592Z,60.00
2022-09-20T17:36:45.811Z,60.10
2022-09-20T17:39:14.201Z,60.30
2022-09-20T17:41:46.429Z,60.60
2022-09-20T17:44:14.651Z,61.10
2022-09-20T17:46:43.676Z,61.30
2022-09-20T17:49:13.394Z,61.40
2022-09-20T17:51:51.910Z,61.80
2022-09-20T17:54:19.751Z,62.10
2022-09-20T17:56:48.804Z,62.20
2022-09-20T17:59:16.917Z,62.40
2022-09-20T18:01:47.436Z,62.50
2022-09-20T18:04:14.460Z,62.60
2022-09-20T18:06:52.952Z,62.60
2022-09-20T18:09:22.768Z,62.60
2022-09-20T18:11:52.766Z,62.70
2022-09-20T18:14:25.489Z,62.70
2022-09-20T18:16:55.046Z,62.60
2022-09-20T18:19:22.830Z,62.70
2022-09-20T18:21:50.641Z,62.80
2022-09-20T18:24:17.708Z,62.90
2022-09-20T18:26:44.705Z,63.10
2022-09-20T18:29:12.635Z,63.30
2022-09-20T18:31:43.142Z,63.50
2022-09-20T18:34:17.783Z,63.60
2022-09-20T18:36:48.431Z,63.80
2022-09-20T18:39:15.513Z,63.90
2022-09-20T18:41:44.097Z,64.10
2022-09-20T18:44:14.430Z,64.30
2022-09-20T18:46:41.716Z,64.50
2022-09-20T18:49:10.804Z,65.00
2022-09-20T18:51:40.119Z,65.30
2022-09-20T18:54:11.678Z,65.60
2022-09-20T18:56:43.658Z,65.70
2022-09-20T18:59:21.945Z,65.80
2022-09-20T19:01:54.327Z,66.10
2022-09-20T19:04:40.262Z,66.20
2022-09-20T19:07:21.105Z,66.30
2022-09-20T19:10:06.770Z,66.30
2022-09-20T19:12:52.162Z,66.30
2022-09-20T19:15:38.658Z,66.50
2022-09-20T19:18:23.736Z,66.40
2022-09-20T19:20:53.551Z,66.60
2022-09-20T19:23:48.549Z,66.60
2022-09-20T19:26:23.836Z,66.70
2022-09-20T19:28:53.162Z,66.60
2022-09-20T19:31:26.372Z,66.60
2022-09-20T19:33:55.424Z,66.60
2022-09-20T19:36:44.746Z,66.70
2022-09-20T19:39:20.520Z,66.70
2022-09-20T19:42:03.913Z,67.10
2022-09-20T19:44:39.365Z,67.90
2022-09-20T19:47:06.389Z,67.80
2022-09-20T19:49:55.753Z,67.80
2022-09-20T19:52:23.805Z,67.70
2022-09-20T19:54:51.882Z,67.70
2022-09-20T19:57:42.576Z,67.60
2022-09-20T20:00:14.648Z,67.70
2022-09-20T20:02:45.788Z,68.10
2022-09-20T20:05:15.146Z,68.40
2022-09-20T20:07:52.130Z,68.50
2022-09-20T20:10:49.761Z,68.90
2022-09-20T20:14:03.397Z,69.10
2022-09-20T20:16:58.319Z,69.10
2022-09-20T20:19:40.066Z,69.10
2022-09-20T20:22:51.490Z,69.20
2022-09-20T20:25:31.556Z,69.50
2022-09-20T20:27:58.565Z,69.70
2022-09-20T20:30:25.764Z,69.80
2022-09-20T20:32:59.727Z,69.90
2022-09-20T20:35:27.012Z,70.00
2022-09-20T20:37:54.090Z,70.10
2022-09-20T20:40:21.268Z,70.20
2022-09-20T20:42:48.604Z,70.30
2022-09-20T20:45:15.964Z,70.40
2022-09-20T20:47:44.251Z,70.50
2022-09-20T20:50:13.815Z,70.60
2022-09-20T20:52:41.108Z,70.40
2022-09-20T20:55:08.524Z,70.00
2022-09-20T20:57:35.681Z,69.80
2022-09-20T21:00:03.202Z,70.10
2022-09-20T21:02:30.170Z,70.60
2022-09-20T21:04:57.192Z,70.70
2022-09-20T21:07:24.870Z,70.50
2022-09-20T21:09:51.847Z,70.50
2022-09-20T21:12:18.786Z,70.70
2022-09-20T21:14:45.734Z,70.90
2022-09-20T21:17:12.657Z,71.10
2022-09-20T21:19:39.617Z,71.20
2022-09-20T21:22:06.574Z,71.30
2022-09-20T21:24:33.560Z,71.20
2022-09-20T21:27:01.202Z,71.10
2022-09-20T21:29:28.441Z,70.90
2022-09-20T21:31:55.572Z,70.90
2022-09-20T21:34:22.609Z,71.10
2022-09-20T21:36:49.533Z,71.30
2022-09-20T21:39:16.533Z,71.50
2022-09-20T21:41:43.528Z,71.50
2022-09-20T21:44:12.195Z,71.40
2022-09-20T21:46:41.123Z,71.30
2022-09-20T21:49:09.993Z,71.50
2022-09-20T21:51:38.548Z,71.70
2022-09-20T21:54:06.042Z,71.60
2022-09-20T21:56:35.936Z,71.70
2022-09-20T21:59:04.548Z,71.70
2022-09-20T22:01:34.631Z,71.80
2022-09-20T22:04:05.925Z,71.80
2022-09-20T22:06:37.070Z,71.90
2022-09-20T22:09:05.904Z,71.80
2022-09-20T22:11:41.679Z,71.70
2022-09-20T22:14:10.019Z,72.40
2022-09-20T22:16:42.136Z,71.80
2022-09-20T22:19:11.244Z,71.80
2022-09-20T22:21:41.071Z,71.90
2022-09-20T22:24:10.628Z,72.10
2022-09-20T22:26:43.188Z,72.20
2022-09-20T22:29:10.380Z,72.30
2022-09-20T22:31:44.692Z,72.20
2022-09-20T22:34:15.526Z,72.30
2022-09-20T22:36:43.376Z,72.50
2022-09-20T22:39:11.392Z,72.60
2022-09-20T22:41:41.056Z,72.70
2022-09-20T22:44:08.697Z,72.80
2022-09-20T22:46:36.337Z,72.80
2022-09-20T22:49:05.689Z,72.80
2022-09-20T22:51:33.478Z,72.60
2022-09-20T22:54:04.896Z,72.60
2022-09-20T22:56:33.053Z,72.60
2022-09-20T22:59:05.079Z,72.40
2022-09-20T23:01:37.375Z,72.40
2022-09-20T23:04:09.620Z,72.20
2022-09-20T23:06:38.837Z,72.10
2022-09-20T23:09:09.799Z,72.10
2022-09-20T23:11:38.666Z,72.00
2022-09-20T23:14:06.694Z,71.80
2022-09-20T23:16:35.759Z,71.90
2022-09-20T23:19:04.829Z,71.90
2022-09-20T23:21:33.211Z,71.90
2022-09-20T23:24:02.243Z,72.10
2022-09-20T23:26:31.793Z,72.10
2022-09-20T23:29:04.420Z,72.20
2022-09-20T23:31:34.594Z,72.00
2022-09-20T23:34:03.922Z,71.80
2022-09-20T23:36:34.261Z,71.80
2022-09-20T23:39:01.236Z,71.90
2022-09-20T23:41:28.851Z,72.00
2022-09-20T23:43:56.058Z,72.00
2022-09-20T23:46:24.893Z,72.10
2022-09-20T23:48:52.569Z,71.70
2022-09-20T23:51:22.505Z,71.40
2022-09-20T23:53:50.498Z,71.20
2022-09-20T23:56:18.071Z,71.20
2022-09-20T23:58:45.734Z,71.20
